sensor_id;sensor_type;location;lat;lon;timestamp;P1;durP1;ratioP1;P2;durP2;ratioP2
42802;SDS011;28447;48.682;9.022;2023-05-15T04:01:21;13.03;;;8.70;;
42802;SDS011;28447;48.682;9.022;2023-05-15T04:03:46;10.73;;;7.70;;
42802;SDS011;28447;48.682;9.022;2023-05-15T04:06:12;12.27;;;8.07;;
42802;SDS011;28447;48.682;9.022;2023-05-15T04:08:38;10.20;;;7.40;;
42802;SDS011;28447;48.682;9.022;2023-05-15T04:11:03;11.77;;;8.37;;
42802;SDS011;28447;48.682;9.022;2023-05-15T04:13:29;11.50;;;8.33;;
42802;SDS011;28447;48.682;9.022;2023-05-15T04:15:55;14.93;;;7.93;;
42802;SDS011;28447;48.682;9.022;2023-05-15T04:18:21;11.27;;;7.90;;
42802;SDS011;28447;48.682;9.022;2023-05-15T04:20:46;10.33;;;8.10;;
42802;SDS011;28447;48.682;9.022;2023-05-15T04:23:12;13.43;;;8.50;;
42802;SDS011;28447;48.682;9.022;2023-05-15T04:25:38;11.17;;;8.03;;
42802;SDS011;28447;48.682;9.022;2023-05-15T04:28:06;11.60;;;8.10;;
42802;SDS011;28447;48.682;9.022;2023-05-15T04:30:32;9.50;;;7.13;;
42802;SDS011;28447;48.682;9.022;2023-05-15T04:32:58;11.40;;;8.43;;
42802;SDS011;28447;48.682;9.022;2023-05-15T04:35:23;10.60;;;7.37;;
42802;SDS011;28447;48.682;9.022;2023-05-15T04:37:49;10.07;;;7.53;;
42802;SDS011;28447;48.682;9.022;2023-05-15T04:40:14;9.80;;;7.57;;
42802;SDS011;28447;48.682;9.022;2023-05-15T04:42:40;12.03;;;8.23;;
42802;SDS011;28447;48.682;9.022;2023-05-15T04:45:06;12.50;;;7.40;;
42802;SDS011;28447;48.682;9.022;2023-05-15T04:47:33;11.30;;;7.53;;
42802;SDS011;28447;48.682;9.022;2023-05-15T04:49:59;8.87;;;7.40;;
42802;SDS011;28447;48.682;9.022;2023-05-15T04:52:25;10.60;;;7.70;;
42802;SDS011;28447;48.682;9.022;2023-05-15T04:54:50;11.83;;;8.47;;
42802;SDS011;28447;48.682;9.022;2023-05-15T04:57:17;9.90;;;7.27;;
42802;SDS011;28447;48.682;9.022;2023-05-15T04:59:43;10.77;;;7.50;;
42802;SDS011;28447;48.682;9.022;2023-05-15T05:02:08;9.77;;;7.50;;
42802;SDS011;28447;48.682;9.022;2023-05-15T05:04:34;12.30;;;8.90;;
42802;SDS011;28447;48.682;9.022;2023-05-15T05:07:00;11.57;;;8.17;;
42802;SDS011;28447;48.682;9.022;2023-05-15T05:09:28;10.27;;;7.60;;
42802;SDS011;28447;48.682;9.022;2023-05-15T05:11:54;11.70;;;8.37;;
42802;SDS011;28447;48.682;9.022;2023-05-15T05:14:20;12.47;;;8.57;;
42802;SDS011;28447;48.682;9.022;2023-05-15T05:16:45;11.50;;;7.57;;
42802;SDS011;28447;48.682;9.022;2023-05-15T05:19:11;10.43;;;7.67;;
42802;SDS011;28447;48.682;9.022;2023-05-15T05:21:37;11.43;;;8.10;;
42802;SDS011;28447;48.682;9.022;2023-05-15T05:24:02;10.57;;;8.03;;
42802;SDS011;28447;48.682;9.022;2023-05-15T05:26:28;10.43;;;7.67;;
42802;SDS011;28447;48.682;9.022;2023-05-15T05:28:54;13.53;;;8.80;;
42802;SDS011;28447;48.682;9.022;2023-05-15T05:31:19;10.63;;;8.03;;
42802;SDS011;28447;48.682;9.022;2023-05-15T05:33:45;11.53;;;8.20;;
42802;SDS011;28447;48.682;9.022;2023-05-15T05:36:13;14.10;;;8.20;;
42802;SDS011;28447;48.682;9.022;2023-05-15T05:38:39;10.70;;;8.00;;
42802;SDS011;28447;48.682;9.022;2023-05-15T05:41:04;9.00;;;7.73;;
42802;SDS011;28447;48.682;9.022;2023-05-15T05:43:30;12.33;;;8.50;;
42802;SDS011;28447;48.682;9.022;2023-05-15T05:45:56;10.47;;;7.67;;
42802;SDS011;28447;48.682;9.022;2023-05-15T05:48:21;10.43;;;7.50;;
42802;SDS011;28447;48.682;9.022;2023-05-15T05:50:47;14.60;;;8.73;;
42802;SDS011;28447;48.682;9.022;2023-05-15T05:53:13;11.23;;;8.53;;
42802;SDS011;28447;48.682;9.022;2023-05-15T05:55:38;11.00;;;7.37;;
42802;SDS011;28447;48.682;9.022;2023-05-15T05:58:04;11.53;;;8.20;;
42802;SDS011;28447;48.682;9.022;2023-05-15T06:00:30;9.30;;;7.13;;
42802;SDS011;28447;48.682;9.022;2023-05-15T06:02:56;11.60;;;7.80;;
42802;SDS011;28447;48.682;9.022;2023-05-15T06:05:23;11.30;;;7.90;;
42802;SDS011;28447;48.682;9.022;2023-05-15T06:07:50;18.80;;;8.40;;
42802;SDS011;28447;48.682;9.022;2023-05-15T06:10:16;11.10;;;7.83;;
42802;SDS011;28447;48.682;9.022;2023-05-15T06:12:42;11.80;;;8.23;;
42802;SDS011;28447;48.682;9.022;2023-05-15T06:15:09;10.07;;;7.57;;
42802;SDS011;28447;48.682;9.022;2023-05-15T06:17:35;11.67;;;8.10;;
42802;SDS011;28447;48.682;9.022;2023-05-15T06:20:01;10.50;;;7.80;;
42802;SDS011;28447;48.682;9.022;2023-05-15T06:22:31;13.63;;;7.67;;
42802;SDS011;28447;48.682;9.022;2023-05-15T06:24:57;10.80;;;8.37;;
42802;SDS011;28447;48.682;9.022;2023-05-15T06:27:25;13.53;;;8.27;;
42802;SDS011;28447;48.682;9.022;2023-05-15T06:29:51;14.53;;;9.00;;
42802;SDS011;28447;48.682;9.022;2023-05-15T06:32:17;11.23;;;7.50;;
42802;SDS011;28447;48.682;9.022;2023-05-15T06:34:42;13.50;;;9.97;;
42802;SDS011;28447;48.682;9.022;2023-05-15T06:37:08;10.83;;;8.53;;
42802;SDS011;28447;48.682;9.022;2023-05-15T06:39:34;13.00;;;8.93;;
42802;SDS011;28447;48.682;9.022;2023-05-15T06:42:00;10.57;;;8.60;;
42802;SDS011;28447;48.682;9.022;2023-05-15T06:44:26;15.10;;;10.60;;
42802;SDS011;28447;48.682;9.022;2023-05-15T06:46:53;11.60;;;8.70;;
42802;SDS011;28447;48.682;9.022;2023-05-15T06:49:18;14.27;;;9.73;;
42802;SDS011;28447;48.682;9.022;2023-05-15T06:51:44;12.33;;;8.97;;
42802;SDS011;28447;48.682;9.022;2023-05-15T06:54:10;13.00;;;9.30;;
42802;SDS011;28447;48.682;9.022;2023-05-15T06:56:35;11.50;;;9.00;;
42802;SDS011;28447;48.682;9.022;2023-05-15T06:59:01;11.80;;;8.57;;
42802;SDS011;28447;48.682;9.022;2023-05-15T07:01:27;20.00;;;9.47;;
42802;SDS011;28447;48.682;9.022;2023-05-15T07:03:52;14.20;;;10.10;;
42802;SDS011;28447;48.682;9.022;2023-05-15T07:06:18;11.33;;;9.10;;
42802;SDS011;28447;48.682;9.022;2023-05-15T07:08:43;14.17;;;8.93;;
42802;SDS011;28447;48.682;9.022;2023-05-15T07:11:09;12.37;;;8.17;;
42802;SDS011;28447;48.682;9.022;2023-05-15T07:13:35;10.50;;;8.10;;
42802;SDS011;28447;48.682;9.022;2023-05-15T07:16:01;10.33;;;8.77;;
42802;SDS011;28447;48.682;9.022;2023-05-15T07:18:27;12.80;;;8.83;;
42802;SDS011;28447;48.682;9.022;2023-05-15T07:20:54;11.20;;;9.47;;
42802;SDS011;28447;48.682;9.022;2023-05-15T07:23:19;11.33;;;8.30;;
42802;SDS011;28447;48.682;9.022;2023-05-15T07:25:45;16.87;;;8.57;;
42802;SDS011;28447;48.682;9.022;2023-05-15T07:28:10;10.83;;;8.70;;
42802;SDS011;28447;48.682;9.022;2023-05-15T07:30:36;10.70;;;7.90;;
42802;SDS011;28447;48.682;9.022;2023-05-15T07:33:02;9.80;;;7.87;;
42802;SDS011;28447;48.682;9.022;2023-05-15T07:35:28;9.70;;;7.80;;
42802;SDS011;28447;48.682;9.022;2023-05-15T07:37:54;10.27;;;6.80;;
42802;SDS011;28447;48.682;9.022;2023-05-15T07:40:19;8.50;;;6.23;;
42802;SDS011;28447;48.682;9.022;2023-05-15T07:42:45;6.20;;;5.60;;
42802;SDS011;28447;48.682;9.022;2023-05-15T07:45:11;5.90;;;5.27;;
42802;SDS011;28447;48.682;9.022;2023-05-15T07:47:36;10.70;;;5.17;;
42802;SDS011;28447;48.682;9.022;2023-05-15T07:50:02;6.10;;;5.43;;
42802;SDS011;28447;48.682;9.022;2023-05-15T07:52:28;6.00;;;5.27;;
42802;SDS011;28447;48.682;9.022;2023-05-15T07:54:53;6.03;;;5.43;;
42802;SDS011;28447;48.682;9.022;2023-05-15T07:57:19;6.27;;;4.90;;
42802;SDS011;28447;48.682;9.022;2023-05-15T07:59:45;5.50;;;5.00;;
42802;SDS011;28447;48.682;9.022;2023-05-15T08:02:10;5.33;;;4.83;;
42802;SDS011;28447;48.682;9.022;2023-05-15T08:04:36;5.33;;;4.83;;
42802;SDS011;28447;48.682;9.022;2023-05-15T08:07:01;6.27;;;5.17;;
42802;SDS011;28447;48.682;9.022;2023-05-15T08:09:27;4.90;;;4.40;;
42802;SDS011;28447;48.682;9.022;2023-05-15T08:11:54;4.80;;;4.40;;
42802;SDS011;28447;48.682;9.022;2023-05-15T08:14:20;4.70;;;4.20;;
42802;SDS011;28447;48.682;9.022;2023-05-15T08:16:48;5.43;;;4.93;;
42802;SDS011;28447;48.682;9.022;2023-05-15T08:19:14;7.40;;;4.40;;
42802;SDS011;28447;48.682;9.022;2023-05-15T08:21:40;5.73;;;4.53;;
42802;SDS011;28447;48.682;9.022;2023-05-15T08:24:05;5.73;;;5.13;;
42802;SDS011;28447;48.682;9.022;2023-05-15T08:26:31;6.37;;;4.60;;
42802;SDS011;28447;48.682;9.022;2023-05-15T08:28:57;6.60;;;4.97;;
42802;SDS011;28447;48.682;9.022;2023-05-15T08:31:22;6.17;;;4.53;;
42802;SDS011;28447;48.682;9.022;2023-05-15T08:33:48;5.60;;;5.00;;
42802;SDS011;28447;48.682;9.022;2023-05-15T08:36:14;5.73;;;5.17;;
42802;SDS011;28447;48.682;9.022;2023-05-15T08:38:42;5.97;;;5.37;;
42802;SDS011;28447;48.682;9.022;2023-05-15T08:41:10;7.07;;;5.20;;
42802;SDS011;28447;48.682;9.022;2023-05-15T08:43:46;6.87;;;5.20;;
42802;SDS011;28447;48.682;9.022;2023-05-15T08:46:13;5.23;;;4.53;;
42802;SDS011;28447;48.682;9.022;2023-05-15T08:48:39;6.07;;;5.13;;
42802;SDS011;28447;48.682;9.022;2023-05-15T08:51:08;6.57;;;5.67;;
42802;SDS011;28447;48.682;9.022;2023-05-15T08:53:36;6.37;;;5.70;;
42802;SDS011;28447;48.682;9.022;2023-05-15T08:56:02;7.37;;;6.50;;
42802;SDS011;28447;48.682;9.022;2023-05-15T08:58:28;6.10;;;5.50;;
42802;SDS011;28447;48.682;9.022;2023-05-15T09:00:55;7.17;;;6.47;;
42802;SDS011;28447;48.682;9.022;2023-05-15T09:03:21;7.50;;;5.60;;
42802;SDS011;28447;48.682;9.022;2023-05-15T09:05:48;6.47;;;5.87;;
42802;SDS011;28447;48.682;9.022;2023-05-15T09:08:16;6.03;;;5.20;;
42802;SDS011;28447;48.682;9.022;2023-05-15T09:10:45;6.10;;;5.50;;
42802;SDS011;28447;48.682;9.022;2023-05-15T09:13:11;6.00;;;5.40;;
42802;SDS011;28447;48.682;9.022;2023-05-15T09:15:38;6.33;;;5.30;;
42802;SDS011;28447;48.682;9.022;2023-05-15T09:18:05;6.33;;;5.43;;
42802;SDS011;28447;48.682;9.022;2023-05-15T09:20:35;5.90;;;5.40;;
42802;SDS011;28447;48.682;9.022;2023-05-15T09:23:02;6.73;;;5.10;;
42802;SDS011;28447;48.682;9.022;2023-05-15T09:28:01;6.40;;;5.80;;
42802;SDS011;28447;48.682;9.022;2023-05-15T09:30:27;8.80;;;5.53;;
42802;SDS011;28447;48.682;9.022;2023-05-15T09:32:55;7.30;;;6.60;;
42802;SDS011;28447;48.682;9.022;2023-05-15T09:35:30;16.00;;;8.50;;
42802;SDS011;28447;48.682;9.022;2023-05-15T09:38:00;15.70;;;8.80;;
42802;SDS011;28447;48.682;9.022;2023-05-15T09:40:28;11.53;;;7.90;;
42802;SDS011;28447;48.682;9.022;2023-05-15T09:42:54;11.10;;;8.10;;
42802;SDS011;28447;48.682;9.022;2023-05-15T09:45:20;13.90;;;8.20;;
42802;SDS011;28447;48.682;9.022;2023-05-15T09:47:49;12.30;;;8.87;;
42802;SDS011;28447;48.682;9.022;2023-05-15T09:50:19;12.07;;;8.57;;
42802;SDS011;28447;48.682;9.022;2023-05-15T09:52:50;9.60;;;8.13;;
42802;SDS011;28447;48.682;9.022;2023-05-15T09:55:18;10.03;;;8.23;;
42802;SDS011;28447;48.682;9.022;2023-05-15T09:57:44;9.63;;;7.83;;
42802;SDS011;28447;48.682;9.022;2023-05-15T10:00:28;10.30;;;6.83;;
42802;SDS011;28447;48.682;9.022;2023-05-15T10:02:56;7.17;;;6.47;;
42802;SDS011;28447;48.682;9.022;2023-05-15T10:05:25;6.80;;;6.10;;
42802;SDS011;28447;48.682;9.022;2023-05-15T10:07:54;7.33;;;5.93;;
42802;SDS011;28447;48.682;9.022;2023-05-15T10:10:21;6.70;;;6.07;;
42802;SDS011;28447;48.682;9.022;2023-05-15T10:12:48;9.20;;;7.40;;
42802;SDS011;28447;48.682;9.022;2023-05-15T10:15:18;7.93;;;7.03;;
42802;SDS011;28447;48.682;9.022;2023-05-15T10:17:49;7.20;;;6.50;;
42802;SDS011;28447;48.682;9.022;2023-05-15T10:20:16;10.40;;;7.50;;
42802;SDS011;28447;48.682;9.022;2023-05-15T10:22:47;7.10;;;5.80;;
42802;SDS011;28447;48.682;9.022;2023-05-15T10:25:22;6.13;;;5.53;;
42802;SDS011;28447;48.682;9.022;2023-05-15T10:28:09;6.50;;;5.80;;
42802;SDS011;28447;48.682;9.022;2023-05-15T10:30:36;6.30;;;5.70;;
42802;SDS011;28447;48.682;9.022;2023-05-15T10:33:06;7.93;;;5.80;;
42802;SDS011;28447;48.682;9.022;2023-05-15T10:35:36;6.43;;;5.40;;
42802;SDS011;28447;48.682;9.022;2023-05-15T10:38:04;7.27;;;6.20;;
42802;SDS011;28447;48.682;9.022;2023-05-15T10:40:31;8.17;;;5.20;;
42802;SDS011;28447;48.682;9.022;2023-05-15T10:43:00;6.87;;;5.50;;
42802;SDS011;28447;48.682;9.022;2023-05-15T10:45:27;6.30;;;5.70;;
42802;SDS011;28447;48.682;9.022;2023-05-15T10:47:54;5.50;;;5.00;;
42802;SDS011;28447;48.682;9.022;2023-05-15T10:50:21;5.53;;;5.03;;
42802;SDS011;28447;48.682;9.022;2023-05-15T10:52:49;8.93;;;5.60;;
42802;SDS011;28447;48.682;9.022;2023-05-15T10:55:16;5.90;;;5.37;;
42802;SDS011;28447;48.682;9.022;2023-05-15T10:57:45;4.63;;;4.23;;
42802;SDS011;28447;48.682;9.022;2023-05-15T11:00:45;5.73;;;4.20;;
42802;SDS011;28447;48.682;9.022;2023-05-15T11:03:07;4.53;;;4.13;;
42802;SDS011;28447;48.682;9.022;2023-05-15T11:08:32;4.10;;;3.70;;
42802;SDS011;28447;48.682;9.022;2023-05-15T11:10:59;4.50;;;4.10;;
42802;SDS011;28447;48.682;9.022;2023-05-15T11:13:25;4.60;;;3.53;;
42802;SDS011;28447;48.682;9.022;2023-05-15T11:15:51;4.00;;;3.60;;
42802;SDS011;28447;48.682;9.022;2023-05-15T11:18:17;5.23;;;3.70;;
42802;SDS011;28447;48.682;9.022;2023-05-15T11:23:19;4.10;;;3.80;;
42802;SDS011;28447;48.682;9.022;2023-05-15T11:25:46;4.07;;;3.50;;
42802;SDS011;28447;48.682;9.022;2023-05-15T11:28:21;4.63;;;3.70;;
42802;SDS011;28447;48.682;9.022;2023-05-15T11:30:49;4.13;;;3.70;;
42802;SDS011;28447;48.682;9.022;2023-05-15T11:33:18;4.07;;;3.67;;
42802;SDS011;28447;48.682;9.022;2023-05-15T11:35:47;3.70;;;3.40;;
42802;SDS011;28447;48.682;9.022;2023-05-15T11:38:22;4.30;;;3.43;;
42802;SDS011;28447;48.682;9.022;2023-05-15T11:45:56;7.43;;;4.30;;
42802;SDS011;28447;48.682;9.022;2023-05-15T11:48:36;4.70;;;4.13;;
42802;SDS011;28447;48.682;9.022;2023-05-15T11:51:04;5.00;;;3.97;;
42802;SDS011;28447;48.682;9.022;2023-05-15T11:53:37;4.00;;;3.70;;
42802;SDS011;28447;48.682;9.022;2023-05-15T11:56:04;4.13;;;3.40;;
42802;SDS011;28447;48.682;9.022;2023-05-15T11:58:30;4.23;;;3.83;;
42802;SDS011;28447;48.682;9.022;2023-05-15T12:00:56;4.27;;;3.80;;
42802;SDS011;28447;48.682;9.022;2023-05-15T12:03:25;4.77;;;3.80;;
42802;SDS011;28447;48.682;9.022;2023-05-15T12:05:57;4.87;;;4.03;;
42802;SDS011;28447;48.682;9.022;2023-05-15T12:08:25;4.50;;;4.10;;
42802;SDS011;28447;48.682;9.022;2023-05-15T12:10:56;4.30;;;3.90;;
42802;SDS011;28447;48.682;9.022;2023-05-15T12:13:23;11.20;;;4.13;;
42802;SDS011;28447;48.682;9.022;2023-05-15T12:15:49;9.63;;;4.40;;
42802;SDS011;28447;48.682;9.022;2023-05-15T12:18:15;4.20;;;3.80;;
42802;SDS011;28447;48.682;9.022;2023-05-15T12:20:41;4.17;;;3.77;;
42802;SDS011;28447;48.682;9.022;2023-05-15T12:23:13;7.90;;;3.37;;
42802;SDS011;28447;48.682;9.022;2023-05-15T12:25:40;4.80;;;3.55;;
42802;SDS011;28447;48.682;9.022;2023-05-15T12:28:07;3.80;;;3.30;;
42802;SDS011;28447;48.682;9.022;2023-05-15T12:30:33;4.20;;;3.80;;
42802;SDS011;28447;48.682;9.022;2023-05-15T12:33:01;3.55;;;3.25;;
42802;SDS011;28447;48.682;9.022;2023-05-15T12:35:28;4.13;;;3.67;;
42802;SDS011;28447;48.682;9.022;2023-05-15T12:37:54;6.07;;;3.27;;
42802;SDS011;28447;48.682;9.022;2023-05-15T12:40:20;3.70;;;3.40;;
42802;SDS011;28447;48.682;9.022;2023-05-15T12:42:50;4.50;;;3.50;;
42802;SDS011;28447;48.682;9.022;2023-05-15T12:45:20;4.40;;;3.43;;
42802;SDS011;28447;48.682;9.022;2023-05-15T12:47:47;3.63;;;3.33;;
42802;SDS011;28447;48.682;9.022;2023-05-15T12:50:16;4.70;;;3.95;;
42802;SDS011;28447;48.682;9.022;2023-05-15T12:55:21;5.73;;;3.80;;
42802;SDS011;28447;48.682;9.022;2023-05-15T12:57:51;6.03;;;4.37;;
42802;SDS011;28447;48.682;9.022;2023-05-15T13:00:17;5.40;;;4.80;;
42802;SDS011;28447;48.682;9.022;2023-05-15T13:02:47;5.70;;;5.20;;
42802;SDS011;28447;48.682;9.022;2023-05-15T13:05:14;5.80;;;5.10;;
42802;SDS011;28447;48.682;9.022;2023-05-15T13:07:40;5.17;;;4.63;;
42802;SDS011;28447;48.682;9.022;2023-05-15T13:10:07;5.30;;;4.80;;
42802;SDS011;28447;48.682;9.022;2023-05-15T13:12:36;5.17;;;4.70;;
42802;SDS011;28447;48.682;9.022;2023-05-15T13:15:04;4.97;;;4.37;;
42802;SDS011;28447;48.682;9.022;2023-05-15T13:17:31;7.40;;;4.80;;
42802;SDS011;28447;48.682;9.022;2023-05-15T13:19:59;5.43;;;4.93;;
42802;SDS011;28447;48.682;9.022;2023-05-15T13:22:25;14.00;;;5.00;;
42802;SDS011;28447;48.682;9.022;2023-05-15T13:24:51;5.30;;;4.80;;
42802;SDS011;28447;48.682;9.022;2023-05-15T13:27:17;4.83;;;4.40;;
42802;SDS011;28447;48.682;9.022;2023-05-15T13:29:43;4.80;;;4.30;;
42802;SDS011;28447;48.682;9.022;2023-05-15T13:32:09;9.10;;;5.20;;
42802;SDS011;28447;48.682;9.022;2023-05-15T13:34:35;6.33;;;4.60;;
42802;SDS011;28447;48.682;9.022;2023-05-15T13:37:00;5.60;;;5.10;;
42802;SDS011;28447;48.682;9.022;2023-05-15T13:39:26;5.73;;;5.20;;
42802;SDS011;28447;48.682;9.022;2023-05-15T13:41:51;5.47;;;4.97;;
42802;SDS011;28447;48.682;9.022;2023-05-15T13:44:17;7.27;;;5.40;;
42802;SDS011;28447;48.682;9.022;2023-05-15T13:46:43;6.00;;;5.40;;
42802;SDS011;28447;48.682;9.022;2023-05-15T13:49:08;8.10;;;5.80;;
42802;SDS011;28447;48.682;9.022;2023-05-15T13:51:35;9.40;;;6.43;;
42802;SDS011;28447;48.682;9.022;2023-05-15T13:54:01;6.57;;;5.90;;
42802;SDS011;28447;48.682;9.022;2023-05-15T13:56:26;6.20;;;5.60;;
42802;SDS011;28447;48.682;9.022;2023-05-15T13:58:52;8.67;;;6.00;;
42802;SDS011;28447;48.682;9.022;2023-05-15T14:01:17;5.20;;;4.70;;
42802;SDS011;28447;48.682;9.022;2023-05-15T14:03:43;5.40;;;4.90;;
42802;SDS011;28447;48.682;9.022;2023-05-15T14:06:09;4.60;;;4.20;;
42802;SDS011;28447;48.682;9.022;2023-05-15T14:08:35;4.53;;;4.13;;
42802;SDS011;28447;48.682;9.022;2023-05-15T14:11:00;5.30;;;4.80;;
42802;SDS011;28447;48.682;9.022;2023-05-15T14:13:26;5.83;;;5.33;;
42802;SDS011;28447;48.682;9.022;2023-05-15T14:15:55;5.00;;;4.40;;
42802;SDS011;28447;48.682;9.022;2023-05-15T14:18:21;4.57;;;4.17;;
42802;SDS011;28447;48.682;9.022;2023-05-15T14:20:47;5.60;;;5.13;;
42802;SDS011;28447;48.682;9.022;2023-05-15T14:23:12;7.90;;;4.90;;
42802;SDS011;28447;48.682;9.022;2023-05-15T14:25:39;6.13;;;4.50;;
42802;SDS011;28447;48.682;9.022;2023-05-15T14:28:05;6.00;;;4.80;;
42802;SDS011;28447;48.682;9.022;2023-05-15T14:30:31;6.17;;;4.80;;
42802;SDS011;28447;48.682;9.022;2023-05-15T14:32:56;8.07;;;5.20;;
42802;SDS011;28447;48.682;9.022;2023-05-15T14:35:22;5.40;;;4.83;;
42802;SDS011;28447;48.682;9.022;2023-05-15T14:37:47;5.20;;;4.70;;
42802;SDS011;28447;48.682;9.022;2023-05-15T14:40:13;6.60;;;4.90;;
42802;SDS011;28447;48.682;9.022;2023-05-15T14:42:39;10.10;;;5.50;;
42802;SDS011;28447;48.682;9.022;2023-05-15T14:45:04;5.63;;;4.67;;
42802;SDS011;28447;48.682;9.022;2023-05-15T14:47:30;9.53;;;5.30;;
42802;SDS011;28447;48.682;9.022;2023-05-15T14:49:57;5.13;;;4.70;;
42802;SDS011;28447;48.682;9.022;2023-05-15T14:52:23;4.60;;;4.20;;
42802;SDS011;28447;48.682;9.022;2023-05-15T14:54:48;4.43;;;4.03;;
42802;SDS011;28447;48.682;9.022;2023-05-15T14:57:14;4.70;;;4.30;;
42802;SDS011;28447;48.682;9.022;2023-05-15T14:59:44;4.70;;;4.13;;
42802;SDS011;28447;48.682;9.022;2023-05-15T15:02:10;4.67;;;4.23;;
42802;SDS011;28447;48.682;9.022;2023-05-15T15:04:36;5.33;;;4.90;;
42802;SDS011;28447;48.682;9.022;2023-05-15T15:07:02;6.50;;;4.27;;
42802;SDS011;28447;48.682;9.022;2023-05-15T15:09:28;5.17;;;4.43;;
42802;SDS011;28447;48.682;9.022;2023-05-15T15:11:53;5.43;;;4.73;;
42802;SDS011;28447;48.682;9.022;2023-05-15T15:14:19;6.10;;;5.20;;
42802;SDS011;28447;48.682;9.022;2023-05-15T15:16:45;5.53;;;4.50;;
42802;SDS011;28447;48.682;9.022;2023-05-15T15:19:11;5.17;;;4.50;;
42802;SDS011;28447;48.682;9.022;2023-05-15T15:21:37;6.13;;;5.53;;
42802;SDS011;28447;48.682;9.022;2023-05-15T15:24:02;9.83;;;5.33;;
42802;SDS011;28447;48.682;9.022;2023-05-15T15:26:28;5.70;;;5.00;;
42802;SDS011;28447;48.682;9.022;2023-05-15T15:28:54;5.83;;;5.33;;
42802;SDS011;28447;48.682;9.022;2023-05-15T15:31:24;7.77;;;5.30;;
42802;SDS011;28447;48.682;9.022;2023-05-15T15:33:54;6.50;;;5.10;;
42802;SDS011;28447;48.682;9.022;2023-05-15T15:36:20;6.47;;;5.30;;
42802;SDS011;28447;48.682;9.022;2023-05-15T15:38:46;5.47;;;4.93;;
42802;SDS011;28447;48.682;9.022;2023-05-15T15:41:12;11.00;;;5.57;;
42802;SDS011;28447;48.682;9.022;2023-05-15T15:43:38;7.50;;;6.03;;
42802;SDS011;28447;48.682;9.022;2023-05-15T15:46:04;5.90;;;5.30;;
42802;SDS011;28447;48.682;9.022;2023-05-15T15:48:30;9.03;;;5.67;;
42802;SDS011;28447;48.682;9.022;2023-05-15T15:50:56;6.80;;;5.40;;
42802;SDS011;28447;48.682;9.022;2023-05-15T15:53:21;5.83;;;4.77;;
42802;SDS011;28447;48.682;9.022;2023-05-15T15:55:47;6.17;;;4.93;;
42802;SDS011;28447;48.682;9.022;2023-05-15T15:58:13;5.90;;;5.23;;
42802;SDS011;28447;48.682;9.022;2023-05-15T16:00:39;5.70;;;5.10;;
42802;SDS011;28447;48.682;9.022;2023-05-15T16:03:05;7.27;;;5.43;;
42802;SDS011;28447;48.682;9.022;2023-05-15T16:05:31;6.50;;;5.57;;
42802;SDS011;28447;48.682;9.022;2023-05-15T16:07:57;8.17;;;6.20;;
42802;SDS011;28447;48.682;9.022;2023-05-15T16:10:23;6.20;;;5.20;;
42802;SDS011;28447;48.682;9.022;2023-05-15T16:12:48;7.70;;;5.77;;
42802;SDS011;28447;48.682;9.022;2023-05-15T16:15:15;6.97;;;6.10;;
42802;SDS011;28447;48.682;9.022;2023-05-15T16:17:41;7.93;;;6.23;;
42802;SDS011;28447;48.682;9.022;2023-05-15T16:20:07;6.40;;;5.80;;
42802;SDS011;28447;48.682;9.022;2023-05-15T16:22:34;6.20;;;5.60;;
42802;SDS011;28447;48.682;9.022;2023-05-15T16:25:00;9.43;;;8.43;;
42802;SDS011;28447;48.682;9.022;2023-05-15T16:27:28;8.63;;;7.10;;
42802;SDS011;28447;48.682;9.022;2023-05-15T16:29:53;16.70;;;11.87;;
42802;SDS011;28447;48.682;9.022;2023-05-15T16:32:19;10.90;;;6.90;;
42802;SDS011;28447;48.682;9.022;2023-05-15T16:34:45;6.60;;;5.63;;
42802;SDS011;28447;48.682;9.022;2023-05-15T16:37:11;7.67;;;6.67;;
42802;SDS011;28447;48.682;9.022;2023-05-15T16:39:36;7.00;;;6.30;;
42802;SDS011;28447;48.682;9.022;2023-05-15T16:42:03;7.17;;;6.37;;
42802;SDS011;28447;48.682;9.022;2023-05-15T16:44:30;6.37;;;5.47;;
42802;SDS011;28447;48.682;9.022;2023-05-15T16:46:56;5.90;;;4.53;;
42802;SDS011;28447;48.682;9.022;2023-05-15T16:49:24;6.43;;;5.63;;
42802;SDS011;28447;48.682;9.022;2023-05-15T16:51:50;5.67;;;4.93;;
42802;SDS011;28447;48.682;9.022;2023-05-15T16:54:16;7.53;;;4.63;;
42802;SDS011;28447;48.682;9.022;2023-05-15T16:56:42;4.70;;;4.20;;
42802;SDS011;28447;48.682;9.022;2023-05-15T16:59:08;7.70;;;4.20;;
42802;SDS011;28447;48.682;9.022;2023-05-15T17:01:33;4.23;;;3.70;;
42802;SDS011;28447;48.682;9.022;2023-05-15T17:03:59;4.40;;;3.90;;
42802;SDS011;28447;48.682;9.022;2023-05-15T17:06:24;6.17;;;4.23;;
42802;SDS011;28447;48.682;9.022;2023-05-15T17:08:50;5.40;;;3.90;;
42802;SDS011;28447;48.682;9.022;2023-05-15T17:11:16;4.53;;;3.20;;
42802;SDS011;28447;48.682;9.022;2023-05-15T17:13:41;4.07;;;3.67;;
42802;SDS011;28447;48.682;9.022;2023-05-15T17:16:07;5.33;;;3.60;;
42802;SDS011;28447;48.682;9.022;2023-05-15T17:18:33;4.60;;;3.73;;
42802;SDS011;28447;48.682;9.022;2023-05-15T17:20:58;5.60;;;4.00;;
42802;SDS011;28447;48.682;9.022;2023-05-15T17:23:24;4.00;;;3.63;;
42802;SDS011;28447;48.682;9.022;2023-05-15T17:25:50;3.83;;;3.43;;
42802;SDS011;28447;48.682;9.022;2023-05-15T17:28:15;4.30;;;3.60;;
42802;SDS011;28447;48.682;9.022;2023-05-15T17:30:41;4.20;;;3.60;;
42802;SDS011;28447;48.682;9.022;2023-05-15T17:33:07;4.60;;;4.10;;
42802;SDS011;28447;48.682;9.022;2023-05-15T17:35:32;4.90;;;4.30;;
42802;SDS011;28447;48.682;9.022;2023-05-15T17:37:58;5.70;;;4.90;;
42802;SDS011;28447;48.682;9.022;2023-05-15T17:40:24;5.30;;;4.77;;
42802;SDS011;28447;48.682;9.022;2023-05-15T17:42:49;6.33;;;4.00;;
42802;SDS011;28447;48.682;9.022;2023-05-15T17:45:15;5.00;;;4.50;;
42802;SDS011;28447;48.682;9.022;2023-05-15T17:47:40;5.00;;;4.50;;
42802;SDS011;28447;48.682;9.022;2023-05-15T17:50:06;8.13;;;4.40;;
42802;SDS011;28447;48.682;9.022;2023-05-15T17:52:33;9.00;;;5.27;;
42802;SDS011;28447;48.682;9.022;2023-05-15T17:55:01;6.60;;;5.50;;
42802;SDS011;28447;48.682;9.022;2023-05-15T17:57:26;7.77;;;5.30;;
42802;SDS011;28447;48.682;9.022;2023-05-15T17:59:52;6.67;;;4.87;;
42802;SDS011;28447;48.682;9.022;2023-05-15T18:02:18;5.23;;;4.60;;
42802;SDS011;28447;48.682;9.022;2023-05-15T18:04:43;5.67;;;4.80;;
42802;SDS011;28447;48.682;9.022;2023-05-15T18:07:09;5.90;;;5.30;;
42802;SDS011;28447;48.682;9.022;2023-05-15T18:09:35;6.00;;;5.20;;
42802;SDS011;28447;48.682;9.022;2023-05-15T18:12:01;5.47;;;4.70;;
42802;SDS011;28447;48.682;9.022;2023-05-15T18:14:26;5.50;;;5.00;;
42802;SDS011;28447;48.682;9.022;2023-05-15T18:16:53;6.40;;;5.07;;
42802;SDS011;28447;48.682;9.022;2023-05-15T18:19:19;6.50;;;5.80;;
42802;SDS011;28447;48.682;9.022;2023-05-15T18:21:45;6.73;;;5.60;;
42802;SDS011;28447;48.682;9.022;2023-05-15T18:24:10;6.83;;;5.40;;
42802;SDS011;28447;48.682;9.022;2023-05-15T18:26:36;5.53;;;5.00;;
42802;SDS011;28447;48.682;9.022;2023-05-15T18:29:02;6.70;;;5.40;;
42802;SDS011;28447;48.682;9.022;2023-05-15T18:31:27;6.87;;;5.17;;
42802;SDS011;28447;48.682;9.022;2023-05-15T18:33:53;6.83;;;5.70;;
42802;SDS011;28447;48.682;9.022;2023-05-15T18:36:18;6.67;;;5.70;;
42802;SDS011;28447;48.682;9.022;2023-05-15T18:38:44;7.50;;;5.97;;
42802;SDS011;28447;48.682;9.022;2023-05-15T18:41:10;7.33;;;5.80;;
42802;SDS011;28447;48.682;9.022;2023-05-15T18:43:35;5.40;;;4.83;;
42802;SDS011;28447;48.682;9.022;2023-05-15T18:46:02;8.90;;;6.00;;
42802;SDS011;28447;48.682;9.022;2023-05-15T18:48:28;8.00;;;6.20;;
42802;SDS011;28447;48.682;9.022;2023-05-15T18:50:53;6.97;;;5.43;;
42802;SDS011;28447;48.682;9.022;2023-05-15T18:53:20;7.40;;;5.60;;
42802;SDS011;28447;48.682;9.022;2023-05-15T18:55:45;8.07;;;6.00;;